createdAt,value
2019-05-13T00:01:14.318Z,7.70
2019-05-13T00:03:43.973Z,7.70
2019-05-13T00:06:10.698Z,7.70
2019-05-13T00:08:38.051Z,7.60
2019-05-13T00:11:05.153Z,7.60
2019-05-13T00:13:33.864Z,7.60
2019-05-13T00:16:03.797Z,7.60
2019-05-13T00:18:30.592Z,7.60
2019-05-13T00:20:57.793Z,7.60
2019-05-13T00:23:25.049Z,7.60
2019-05-13T00:25:54.503Z,7.60
2019-05-13T00:28:23.503Z,7.50
2019-05-13T00:30:50.897Z,7.50
2019-05-13T00:33:18.167Z,7.60
2019-05-13T00:35:45.303Z,7.60
2019-05-13T00:38:14.142Z,7.60
2019-05-13T00:40:44.096Z,7.60
2019-05-13T00:43:10.943Z,7.60
2019-05-13T00:45:38.348Z,7.60
2019-05-13T00:48:05.748Z,7.50
2019-05-13T00:50:33.780Z,7.50
2019-05-13T00:53:01.378Z,7.50
2019-05-13T00:55:28.624Z,7.50
2019-05-13T00:57:56.033Z,7.50
2019-05-13T01:00:24.321Z,7.50
2019-05-13T01:02:53.343Z,7.50
2019-05-13T01:05:23.284Z,7.50
2019-05-13T01:07:50.113Z,7.50
2019-05-13T01:10:17.563Z,7.50
2019-05-13T01:12:44.922Z,7.50
2019-05-13T01:15:13.744Z,7.50
2019-05-13T01:17:41.169Z,7.50
2019-05-13T01:22:36.515Z,7.50
2019-05-13T01:25:04.758Z,7.50
2019-05-13T01:27:33.412Z,7.50
2019-05-13T01:30:00.998Z,7.50
2019-05-13T01:32:28.554Z,7.50
2019-05-13T01:34:55.711Z,7.40
2019-05-13T01:37:24.760Z,7.50
2019-05-13T01:39:54.070Z,7.50
2019-05-13T01:42:21.248Z,7.40
2019-05-13T01:44:48.719Z,7.40
2019-05-13T01:47:16.208Z,7.50
2019-05-13T01:49:44.036Z,7.50
2019-05-13T01:52:13.551Z,7.50
2019-05-13T01:54:40.833Z,7.40
2019-05-13T01:57:08.337Z,7.50
2019-05-13T01:59:35.721Z,7.40
2019-05-13T02:02:03.487Z,7.40
2019-05-13T02:04:33.372Z,7.40
2019-05-13T02:07:00.122Z,7.40
2019-05-13T02:09:27.987Z,7.40
2019-05-13T02:11:55.374Z,7.40
2019-05-13T02:14:23.708Z,7.40
2019-05-13T02:16:53.416Z,7.30
2019-05-13T02:19:20.242Z,7.30
2019-05-13T02:21:47.497Z,7.30
2019-05-13T02:24:14.852Z,7.30
2019-05-13T02:26:43.723Z,7.30
2019-05-13T02:29:11.335Z,7.30
2019-05-13T02:31:47.593Z,7.30
2019-05-13T02:34:08.352Z,7.20
2019-05-13T02:36:35.571Z,7.20
2019-05-13T02:39:05.548Z,7.20
2019-05-13T02:41:34.186Z,7.20
2019-05-13T02:46:38.341Z,7.30
2019-05-13T02:49:05.742Z,7.30
2019-05-13T02:51:33.128Z,7.30
2019-05-13T02:54:03.589Z,7.30
2019-05-13T02:56:32.807Z,7.30
2019-05-13T02:58:58.798Z,7.30
2019-05-13T03:01:26.354Z,7.30
2019-05-13T03:03:53.603Z,7.30
2019-05-13T03:06:22.312Z,7.30
2019-05-13T03:11:17.823Z,7.30
2019-05-13T03:13:45.063Z,7.20
2019-05-13T03:16:17.256Z,7.20
2019-05-13T03:18:44.830Z,7.30
2019-05-13T03:21:12.917Z,7.30
2019-05-13T03:23:44.210Z,7.30
2019-05-13T03:26:13.021Z,7.30
2019-05-13T03:28:43.183Z,7.30
2019-05-13T03:31:15.893Z,7.30
2019-05-13T03:33:45.307Z,7.30
2019-05-13T03:36:15.357Z,7.30
2019-05-13T03:38:58.779Z,7.30
2019-05-13T03:41:12.177Z,7.30
2019-05-13T03:43:43.058Z,7.30
2019-05-13T03:46:12.392Z,7.30
2019-05-13T03:48:42.796Z,7.40
2019-05-13T03:51:09.178Z,7.50
2019-05-13T03:53:36.877Z,7.60
2019-05-13T03:56:05.078Z,7.70
2019-05-13T03:58:32.834Z,7.70
2019-05-13T04:01:02.894Z,7.60
2019-05-13T04:03:32.892Z,7.60
2019-05-13T04:06:03.230Z,7.60
2019-05-13T04:08:28.517Z,7.60
2019-05-13T04:10:55.780Z,7.60
2019-05-13T04:13:23.528Z,7.50
2019-05-13T04:15:53.059Z,7.50
2019-05-13T04:18:23.432Z,7.50
2019-05-13T04:20:53.008Z,7.50
2019-05-13T04:23:22.744Z,7.50
2019-05-13T04:25:48.292Z,7.60
2019-05-13T04:28:15.638Z,7.60
2019-05-13T04:30:43.743Z,7.60
2019-05-13T04:33:13.962Z,7.60
2019-05-13T04:35:42.606Z,7.60
2019-05-13T04:38:13.054Z,7.60
2019-05-13T04:40:42.174Z,7.60
2019-05-13T04:43:07.949Z,7.70
2019-05-13T04:45:35.328Z,7.70
2019-05-13T04:48:03.585Z,7.80
2019-05-13T04:55:26.976Z,7.80
2019-05-13T04:57:54.449Z,7.80
2019-05-13T05:00:42.748Z,7.80
2019-05-13T05:06:36.774Z,7.90
2019-05-13T05:09:40.303Z,7.80
2019-05-13T05:12:51.961Z,7.90
2019-05-13T05:15:54.985Z,7.90
2019-05-13T05:22:02.647Z,7.90
2019-05-13T05:24:52.020Z,8.00
2019-05-13T05:27:51.463Z,8.10
2019-05-13T05:30:51.847Z,8.10
2019-05-13T05:33:48.454Z,8.20
2019-05-13T05:36:33.174Z,8.30
2019-05-13T05:39:23.874Z,8.40
2019-05-13T05:41:57.333Z,8.40
2019-05-13T05:44:32.108Z,8.50
2019-05-13T05:47:02.736Z,8.50
2019-05-13T05:49:32.056Z,8.60
2019-05-13T05:52:04.789Z,8.60
2019-05-13T05:54:37.594Z,8.70
2019-05-13T05:57:07.504Z,8.70
2019-05-13T05:59:37.103Z,8.80
2019-05-13T06:02:06.422Z,8.90
2019-05-13T06:04:34.224Z,8.90
2019-05-13T06:07:03.243Z,9.00
2019-05-13T06:09:32.237Z,9.10
2019-05-13T06:12:01.673Z,9.20
2019-05-13T06:14:32.351Z,9.20
2019-05-13T06:16:58.930Z,9.30
2019-05-13T06:19:26.494Z,9.30
2019-05-13T06:21:53.800Z,9.40
2019-05-13T06:24:24.544Z,9.40
2019-05-13T06:26:52.055Z,9.40
2019-05-13T06:29:22.070Z,9.50
2019-05-13T06:31:48.980Z,9.60
2019-05-13T06:34:16.749Z,9.60
2019-05-13T06:36:44.040Z,9.70
2019-05-13T06:39:12.416Z,9.70
2019-05-13T06:41:41.652Z,9.70
2019-05-13T06:44:08.924Z,9.80
2019-05-13T06:46:36.585Z,9.80
2019-05-13T06:49:04.048Z,9.80
2019-05-13T06:51:31.565Z,9.90
2019-05-13T06:53:58.844Z,9.90
2019-05-13T06:56:26.114Z,10.00
2019-05-13T06:58:53.214Z,10.00
2019-05-13T07:01:21.723Z,10.10
2019-05-13T07:03:51.773Z,10.10
2019-05-13T07:06:21.514Z,10.10
2019-05-13T07:08:48.293Z,10.10
2019-05-13T07:11:21.213Z,10.10
2019-05-13T07:13:45.343Z,10.10
2019-05-13T07:16:12.855Z,10.30
2019-05-13T07:18:41.592Z,10.30
2019-05-13T07:21:09.061Z,10.30
2019-05-13T07:23:36.514Z,10.50
2019-05-13T07:26:04.062Z,10.60
2019-05-13T07:28:32.325Z,10.60
2019-05-13T07:31:02.171Z,10.70
2019-05-13T07:33:32.039Z,10.80
2019-05-13T07:36:02.797Z,10.90
2019-05-13T07:38:32.386Z,11.10
2019-05-13T07:41:04.714Z,11.30
2019-05-13T07:43:32.268Z,11.10
2019-05-13T07:46:02.089Z,11.20
2019-05-13T07:48:31.631Z,11.30
2019-05-13T07:51:00.451Z,11.40
2019-05-13T07:53:26.980Z,11.50
2019-05-13T07:55:55.745Z,11.50
2019-05-13T07:58:23.570Z,11.70
2019-05-13T08:00:51.960Z,11.80
2019-05-13T08:03:21.418Z,11.80
2019-05-13T08:05:51.184Z,11.80
2019-05-13T08:08:17.965Z,11.80
2019-05-13T08:10:45.210Z,11.80
2019-05-13T08:13:12.516Z,11.90
2019-05-13T08:15:42.041Z,12.00
2019-05-13T08:18:12.228Z,12.00
2019-05-13T08:20:42.003Z,12.00
2019-05-13T08:23:11.556Z,12.00
2019-05-13T08:25:38.090Z,12.00
2019-05-13T08:28:05.490Z,12.00
2019-05-13T08:30:32.861Z,12.00
2019-05-13T08:33:01.800Z,11.90
2019-05-13T08:35:31.325Z,11.90
2019-05-13T08:37:58.285Z,11.90
2019-05-13T08:40:25.636Z,11.90
2019-05-13T08:42:52.994Z,11.80
2019-05-13T08:45:22.263Z,11.90
2019-05-13T08:47:51.227Z,12.00
2019-05-13T08:50:21.859Z,12.20
2019-05-13T08:52:48.549Z,12.20
2019-05-13T08:55:16.540Z,12.30
2019-05-13T08:57:43.977Z,12.30
2019-05-13T09:00:13.689Z,12.20
2019-05-13T09:02:47.105Z,12.10
2019-05-13T09:05:15.161Z,12.10
2019-05-13T09:07:42.515Z,12.20
2019-05-13T09:10:12.432Z,12.20
2019-05-13T09:12:40.985Z,12.20
2019-05-13T09:15:08.966Z,12.10
2019-05-13T09:17:36.909Z,12.20
2019-05-13T09:20:06.422Z,12.40
2019-05-13T09:22:33.694Z,12.40
2019-05-13T09:25:02.157Z,12.30
2019-05-13T09:27:31.836Z,12.30
2019-05-13T09:29:58.884Z,12.40
2019-05-13T09:32:26.070Z,12.60
2019-05-13T09:34:53.320Z,12.80
2019-05-13T09:37:22.443Z,12.90
2019-05-13T09:39:51.665Z,13.00
2019-05-13T09:42:21.479Z,13.20
2019-05-13T09:44:48.361Z,13.30
2019-05-13T09:47:15.845Z,13.30
2019-05-13T09:52:11.933Z,13.30
2019-05-13T09:54:41.535Z,13.20
2019-05-13T09:57:08.470Z,13.20
2019-05-13T09:59:35.659Z,13.40
2019-05-13T10:02:03.593Z,13.60
2019-05-13T10:04:31.853Z,13.50
2019-05-13T10:07:02.331Z,13.60
2019-05-13T10:09:28.861Z,13.60
2019-05-13T10:11:56.441Z,13.50
2019-05-13T10:14:23.674Z,13.40
2019-05-13T10:16:51.521Z,13.60
2019-05-13T10:19:21.458Z,13.90
2019-05-13T10:21:49.119Z,14.00
2019-05-13T10:24:16.259Z,14.10
2019-05-13T10:26:44.085Z,14.20
2019-05-13T10:29:12.233Z,14.50
2019-05-13T10:31:42.082Z,14.70
2019-05-13T10:34:09.498Z,14.90
2019-05-13T10:36:37.024Z,14.80
2019-05-13T10:39:07.135Z,14.80
2019-05-13T10:41:34.600Z,15.00
2019-05-13T10:44:02.952Z,15.20
2019-05-13T10:46:32.129Z,15.40
2019-05-13T10:49:01.922Z,15.40
2019-05-13T10:51:28.516Z,15.10
2019-05-13T10:53:59.520Z,15.30
2019-05-13T10:56:25.059Z,15.30
2019-05-13T10:58:53.477Z,15.20
2019-05-13T11:01:22.482Z,15.40
2019-05-13T11:03:52.421Z,15.40
2019-05-13T11:06:21.875Z,15.20
2019-05-13T11:08:49.023Z,15.30
2019-05-13T11:11:16.388Z,15.20
2019-05-13T11:13:54.498Z,15.40
2019-05-13T11:16:12.711Z,15.70
2019-05-13T11:18:39.955Z,15.80
2019-05-13T11:21:07.296Z,15.70
2019-05-13T11:23:36.386Z,15.90
2019-05-13T11:26:03.850Z,15.90
2019-05-13T11:28:32.200Z,15.90
2019-05-13T11:31:02.877Z,16.00
2019-05-13T11:33:31.569Z,16.10
2019-05-13T11:35:58.386Z,16.30
2019-05-13T11:38:25.481Z,16.30
2019-05-13T11:40:52.774Z,16.30
2019-05-13T11:43:21.509Z,16.50
2019-05-13T11:45:50.944Z,16.30
2019-05-13T11:48:18.635Z,16.10
2019-05-13T11:50:50.123Z,16.00
2019-05-13T11:53:31.421Z,15.90
2019-05-13T11:55:44.179Z,15.90
2019-05-13T11:58:13.769Z,15.90
2019-05-13T12:00:57.931Z,15.90
2019-05-13T12:03:25.238Z,16.00
2019-05-13T12:05:54.128Z,16.00
2019-05-13T12:08:22.784Z,16.00
2019-05-13T12:10:51.867Z,16.10
2019-05-13T12:13:22.651Z,15.90
2019-05-13T12:15:49.980Z,15.80
2019-05-13T12:18:18.035Z,15.30
2019-05-13T12:20:45.575Z,15.30
2019-05-13T12:23:13.096Z,15.30
2019-05-13T12:25:43.741Z,15.20
2019-05-13T12:28:11.467Z,15.30
2019-05-13T12:30:39.295Z,15.40
2019-05-13T12:33:13.800Z,15.40
2019-05-13T12:35:41.059Z,15.40
2019-05-13T12:38:08.645Z,15.50
2019-05-13T12:40:36.071Z,15.60
2019-05-13T12:43:03.860Z,15.40
2019-05-13T12:45:31.380Z,15.20
2019-05-13T12:47:58.839Z,15.20
2019-05-13T12:50:26.630Z,15.00
2019-05-13T12:52:54.579Z,14.80
2019-05-13T12:55:22.198Z,14.70
2019-05-13T12:57:52.055Z,14.80
2019-05-13T13:00:23.349Z,14.70
2019-05-13T13:02:51.823Z,14.70
2019-05-13T13:05:20.697Z,14.70
2019-05-13T13:08:13.586Z,14.70
2019-05-13T13:10:18.363Z,14.50
2019-05-13T13:12:45.545Z,14.50
2019-05-13T13:15:36.525Z,14.40
2019-05-13T13:17:42.282Z,14.40
2019-05-13T13:20:14.639Z,14.30
2019-05-13T13:22:39.306Z,14.20
2019-05-13T13:25:08.236Z,14.40
2019-05-13T13:28:03.158Z,14.40
2019-05-13T13:30:08.401Z,14.40
2019-05-13T13:32:36.002Z,14.40
2019-05-13T13:35:05.478Z,14.40
2019-05-13T13:37:35.006Z,14.10
2019-05-13T13:40:03.411Z,14.20
2019-05-13T13:42:33.063Z,14.10
2019-05-13T13:45:05.318Z,14.20
2019-05-13T13:47:33.223Z,14.40
2019-05-13T13:49:58.839Z,14.30
2019-05-13T13:52:26.186Z,14.20
2019-05-13T13:55:02.954Z,14.20
2019-05-13T13:57:25.657Z,14.20
2019-05-13T14:00:19.754Z,14.10
2019-05-13T14:02:25.073Z,14.10
2019-05-13T14:04:54.008Z,14.10
2019-05-13T14:07:33.476Z,14.10
2019-05-13T14:09:51.351Z,14.10
2019-05-13T14:12:18.717Z,14.10
2019-05-13T14:14:46.600Z,14.10
2019-05-13T14:17:13.748Z,14.20
2019-05-13T14:19:42.152Z,14.10
2019-05-13T14:22:12.315Z,14.20
2019-05-13T14:24:38.981Z,14.20
2019-05-13T14:27:06.641Z,14.10
2019-05-13T14:29:40.544Z,14.10
2019-05-13T14:32:03.132Z,14.10
2019-05-13T14:34:31.911Z,13.90
2019-05-13T14:37:01.191Z,13.90
2019-05-13T14:39:28.424Z,13.90
2019-05-13T14:41:56.493Z,13.90
2019-05-13T14:44:23.745Z,14.10
2019-05-13T14:46:52.323Z,14.20
2019-05-13T14:49:22.369Z,14.10
2019-05-13T14:51:49.130Z,14.00
2019-05-13T14:54:16.340Z,14.10
2019-05-13T14:56:43.513Z,14.10
2019-05-13T14:59:12.007Z,14.00
2019-05-13T15:01:41.336Z,14.00
2019-05-13T15:04:08.516Z,13.90
2019-05-13T15:06:36.020Z,13.80
2019-05-13T15:09:05.543Z,13.80
2019-05-13T15:11:33.028Z,13.80
2019-05-13T15:14:02.391Z,13.80
2019-05-13T15:16:31.733Z,13.80
2019-05-13T15:18:58.584Z,13.90
2019-05-13T15:21:27.669Z,13.80
2019-05-13T15:23:55.499Z,13.90
2019-05-13T15:26:22.724Z,13.90
2019-05-13T15:28:51.869Z,14.00
2019-05-13T15:31:18.934Z,14.10
2019-05-13T15:33:46.278Z,14.10
2019-05-13T15:36:13.331Z,14.10
2019-05-13T15:38:41.389Z,14.20
2019-05-13T15:41:12.135Z,14.20
2019-05-13T15:43:37.716Z,14.10
2019-05-13T15:46:04.885Z,14.10
2019-05-13T15:48:32.199Z,14.10
2019-05-13T15:51:01.982Z,14.20
2019-05-13T15:53:28.888Z,14.10
2019-05-13T15:55:56.327Z,14.10
2019-05-13T15:58:38.363Z,14.10
2019-05-13T16:00:52.755Z,14.10
2019-05-13T16:03:20.234Z,14.10
2019-05-13T16:05:47.837Z,14.10
2019-05-13T16:08:15.690Z,14.20
2019-05-13T16:10:42.993Z,14.40
2019-05-13T16:13:11.856Z,14.50
2019-05-13T16:15:41.460Z,14.60
2019-05-13T16:18:08.204Z,14.80
2019-05-13T16:20:35.675Z,14.70
2019-05-13T16:23:03.152Z,14.80
2019-05-13T16:25:31.961Z,14.70
2019-05-13T16:28:01.203Z,14.50
2019-05-13T16:30:28.120Z,14.40
2019-05-13T16:32:55.216Z,14.30
2019-05-13T16:35:22.288Z,14.20
2019-05-13T16:37:49.611Z,14.10
2019-05-13T16:40:16.836Z,14.10
2019-05-13T16:42:43.981Z,13.90
2019-05-13T16:45:12.498Z,13.90
2019-05-13T16:47:56.242Z,13.80
2019-05-13T16:50:11.519Z,13.70
2019-05-13T16:52:38.611Z,13.70
2019-05-13T16:55:06.712Z,13.70
2019-05-13T16:57:33.911Z,13.70
2019-05-13T17:00:02.426Z,13.60
2019-05-13T17:02:29.790Z,13.60
2019-05-13T17:04:56.995Z,13.60
2019-05-13T17:07:24.257Z,13.50
2019-05-13T17:09:52.090Z,13.50
2019-05-13T17:12:21.258Z,13.40
2019-05-13T17:14:48.655Z,13.50
2019-05-13T17:17:16.126Z,13.70
2019-05-13T17:20:05.251Z,14.10
2019-05-13T17:22:32.539Z,14.60
2019-05-13T17:25:02.324Z,15.20
2019-05-13T17:27:28.879Z,15.70
2019-05-13T17:29:56.133Z,16.00
2019-05-13T17:32:23.396Z,16.10
2019-05-13T17:34:51.541Z,16.10
2019-05-13T17:37:18.903Z,16.10
2019-05-13T17:39:46.164Z,15.90
2019-05-13T17:42:13.414Z,15.70
2019-05-13T17:44:45.991Z,15.40
2019-05-13T17:47:11.658Z,15.10
2019-05-13T17:49:41.632Z,14.90
2019-05-13T17:52:08.120Z,14.60
2019-05-13T17:54:35.198Z,14.40
2019-05-13T17:57:02.344Z,14.20
2019-05-13T17:59:31.440Z,13.80
2019-05-13T18:01:58.624Z,13.40
2019-05-13T18:04:25.692Z,13.00
2019-05-13T18:06:52.756Z,12.70
2019-05-13T18:09:22.189Z,12.50
2019-05-13T18:11:48.829Z,12.20
2019-05-13T18:14:15.982Z,12.00
2019-05-13T18:16:43.223Z,11.80
2019-05-13T18:19:11.904Z,11.70
2019-05-13T18:21:42.186Z,11.50
2019-05-13T18:24:08.970Z,11.40
2019-05-13T18:26:36.181Z,11.30
2019-05-13T18:29:03.368Z,11.20
2019-05-13T18:31:30.523Z,11.10
2019-05-13T18:33:57.777Z,11.00
2019-05-13T18:36:25.253Z,10.90
2019-05-13T18:38:52.950Z,10.80
2019-05-13T18:41:21.374Z,10.70
2019-05-13T18:43:48.626Z,10.70
2019-05-13T18:46:15.755Z,10.60
2019-05-13T18:48:58.251Z,10.60
2019-05-13T18:51:12.211Z,10.50
2019-05-13T18:53:41.428Z,10.50
2019-05-13T18:56:08.631Z,10.40
2019-05-13T18:58:35.805Z,10.40
2019-05-13T19:01:03.176Z,10.30
2019-05-13T19:03:32.412Z,10.30
2019-05-13T19:05:59.917Z,10.30
2019-05-13T19:08:27.076Z,10.30
2019-05-13T19:10:54.514Z,10.20
2019-05-13T19:13:21.884Z,10.20
2019-05-13T19:15:51.542Z,10.20
2019-05-13T19:18:18.530Z,10.10
2019-05-13T19:20:45.985Z,10.10
2019-05-13T19:23:13.135Z,10.10
2019-05-13T19:25:42.702Z,10.10
2019-05-13T19:28:11.771Z,10.00
2019-05-13T19:30:40.992Z,10.00
2019-05-13T19:33:08.288Z,9.90
2019-05-13T19:35:35.629Z,9.90
2019-05-13T19:38:03.189Z,9.90
2019-05-13T19:40:31.255Z,9.90
2019-05-13T19:45:26.894Z,9.80
2019-05-13T19:47:54.354Z,9.80
2019-05-13T19:50:22.404Z,9.80
2019-05-13T19:52:51.889Z,9.80
2019-05-13T19:55:19.725Z,9.80
2019-05-13T19:57:47.139Z,9.70
2019-05-13T20:00:15.158Z,9.70
2019-05-13T20:02:42.375Z,9.70
2019-05-13T20:05:09.762Z,9.60
2019-05-13T20:07:36.960Z,9.60
2019-05-13T20:10:07.846Z,9.60
2019-05-13T20:12:35.045Z,9.60
2019-05-13T20:15:04.107Z,9.50
2019-05-13T20:17:32.100Z,9.50
2019-05-13T20:20:01.853Z,9.50
2019-05-13T20:22:31.163Z,9.50
2019-05-13T20:24:58.465Z,9.50
2019-05-13T20:27:25.958Z,9.50
2019-05-13T20:29:53.389Z,9.50
2019-05-13T20:32:22.280Z,9.50
2019-05-13T20:34:51.415Z,9.50
2019-05-13T20:37:18.924Z,9.60
2019-05-13T20:39:46.059Z,9.50
2019-05-13T20:42:13.231Z,9.50
2019-05-13T20:44:41.937Z,9.50
2019-05-13T20:47:10.100Z,9.50
2019-05-13T20:49:37.335Z,9.40
2019-05-13T20:52:04.480Z,9.40
2019-05-13T20:54:31.935Z,9.40
2019-05-13T20:57:01.786Z,9.30
2019-05-13T20:59:28.390Z,9.30
2019-05-13T21:01:55.635Z,9.30
2019-05-13T21:04:22.939Z,9.30
2019-05-13T21:06:51.573Z,9.30
2019-05-13T21:09:19.024Z,9.30
2019-05-13T21:11:46.486Z,9.30
2019-05-13T21:14:14.040Z,9.30
2019-05-13T21:16:41.940Z,9.20
2019-05-13T21:19:09.375Z,9.30
2019-05-13T21:21:36.924Z,9.30
2019-05-13T21:24:04.169Z,9.30
2019-05-13T21:26:31.577Z,9.20
2019-05-13T21:28:58.683Z,9.20
2019-05-13T21:31:26.030Z,9.20
2019-05-13T21:33:53.423Z,9.10
2019-05-13T21:36:21.598Z,9.10
2019-05-13T21:38:48.910Z,9.00
2019-05-13T21:41:16.345Z,9.00
2019-05-13T21:43:44.286Z,9.00
2019-05-13T21:46:12.062Z,9.00
2019-05-13T21:48:41.505Z,9.00
2019-05-13T21:51:08.663Z,9.00
2019-05-13T21:53:41.366Z,9.00
2019-05-13T21:56:08.680Z,8.90
2019-05-13T21:58:36.130Z,8.90
2019-05-13T22:01:03.593Z,8.90
2019-05-13T22:03:33.301Z,8.90
2019-05-13T22:06:02.005Z,8.80
2019-05-13T22:08:31.879Z,8.80
2019-05-13T22:10:58.939Z,8.80
2019-05-13T22:13:26.509Z,8.70
2019-05-13T22:15:53.700Z,8.70
2019-05-13T22:18:20.795Z,8.60
2019-05-13T22:20:52.764Z,8.60
2019-05-13T22:23:17.304Z,8.60
2019-05-13T22:25:44.549Z,8.60
2019-05-13T22:28:11.980Z,8.60
2019-05-13T22:30:41.213Z,8.70
2019-05-13T22:33:08.710Z,8.70
2019-05-13T22:35:35.960Z,8.70
2019-05-13T22:38:03.531Z,8.80
2019-05-13T22:40:32.248Z,8.90
2019-05-13T22:42:59.974Z,9.00
2019-05-13T22:45:27.315Z,9.20
2019-05-13T22:47:54.573Z,9.50
2019-05-13T22:50:22.129Z,9.80
2019-05-13T22:52:49.375Z,9.90
2019-05-13T22:55:16.429Z,9.90
2019-05-13T22:57:43.779Z,9.90
2019-05-13T23:00:12.061Z,9.80
2019-05-13T23:02:42.138Z,9.90
2019-05-13T23:05:08.710Z,9.90
2019-05-13T23:07:38.205Z,9.90
2019-05-13T23:10:06.945Z,9.90
2019-05-13T23:12:34.121Z,9.90
2019-05-13T23:15:01.452Z,9.80
2019-05-13T23:17:28.852Z,9.80
2019-05-13T23:19:55.899Z,9.70
2019-05-13T23:22:23.698Z,9.60
2019-05-13T23:24:50.809Z,9.60
2019-05-13T23:27:21.846Z,9.50
2019-05-13T23:29:48.184Z,9.40
2019-05-13T23:32:15.550Z,9.30
2019-05-13T23:34:43.095Z,9.20
2019-05-13T23:37:11.360Z,9.20
2019-05-13T23:39:41.402Z,9.20
2019-05-13T23:42:08.230Z,9.20
2019-05-13T23:44:35.571Z,9.20
2019-05-13T23:47:02.875Z,9.30
2019-05-13T23:49:31.663Z,9.30
2019-05-13T23:51:59.068Z,9.40
2019-05-13T23:54:26.325Z,9.40
2019-05-13T23:56:54.015Z,9.40
2019-05-13T23:59:21.907Z,9.40
